Flight Track Log - Related Links

Times and Time Zones

All times are in EST time to prevent confusion due to time zone crossing. See the GTI2618 flight status page for this flight to view local times or setup timezone preferences in your user account.

Time Position Orientation Groundspeed Altitude Reporting Facility
EST Latitude Longitude Course Direction KTS MPH feet Rate Location/Type
Fri 11:30:29 PM 37.4500 -122.0500 112° Southeast 189 217 1,800  Level Northern Cal TRACON
Fri 11:31:29 PM 37.4500 -121.9833 104° East 243 280 3,100 1,550 Climbing Northern Cal TRACON
Fri 11:32:29 PM 37.4000 -121.9167 105° East 286 329 4,900 1,316 Climbing Northern Cal TRACON
Fri 11:33:23 PM 37.3667 -121.8333 104° East 286 329 5,600 2,087 Climbing Northern Cal TRACON
Fri 11:34:47 PM 37.3030 -121.7270 125° Southeast 305 351 9,700 2,661 Climbing FlightAware ADS-B
Fri 11:35:27 PM 37.2810 -121.6590 112° Southeast 339 390 11,100 1,835 Climbing FlightAware ADS-B
Fri 11:36:12 PM 37.2630 -121.5660 104° East 393 452 12,300 2,188 Climbing FlightAware ADS-B
Fri 11:36:52 PM 37.2450 -121.4810 105° East 411 473 14,200 2,775 Climbing FlightAware ADS-B
Fri 11:37:32 PM 37.2240 -121.3820 105° East 426 490 16,000 2,753 Climbing FlightAware ADS-B
Fri 11:38:17 PM 37.2020 -121.2750 104° East 439 505 18,100 2,682 Climbing FlightAware ADS-B
Fri 11:38:57 PM 37.1820 -121.1790 105° East 449 517 19,800 2,400 Climbing FlightAware ADS-B
Fri 11:39:42 PM 37.1580 -121.0670 105° East 460 529 21,500 1,200 Climbing FlightAware ADS-B
Fri 11:40:22 PM 37.1370 -120.9680 105° East 460 529 21,500 1,412 Level FlightAware ADS-B
Fri 11:41:07 PM 37.1110 -120.8480 105° East 472 543 23,500 1,412 Climbing FlightAware ADS-B
Fri 11:41:47 PM 37.0920 -120.7580 105° East 472 543 23,500 2,850 Level FlightAware ADS-B
Fri 11:42:27 PM 37.0730 -120.6190 100° East 497 572 27,300 3,529 Climbing FlightAware ADS-B
Fri 11:43:12 PM 37.1030 -120.4910 74° East 508 585 28,500 1,835 Climbing FlightAware ADS-B
Fri 11:43:52 PM 37.1430 -120.3740 67° East 509 586 29,900 2,047 Climbing FlightAware ADS-B
Fri 11:44:37 PM 37.1840 -120.2560 66° East 505 581 31,400 1,976 Climbing FlightAware ADS-B
Fri 11:45:17 PM 37.2230 -120.1430 67° East 503 579 32,700 1,760 Climbing FlightAware ADS-B
Fri 11:45:52 PM 37.2540 -120.0510 67° East 500 575 33,600 1,600 Climbing FlightAware ADS-B
Fri 11:46:32 PM 37.2900 -119.9400 68° East 497 572 34,700 988 Climbing FlightAware ADS-B
Fri 11:47:17 PM 37.3260 -119.8220 69° East 497 572 35,000 212 Climbing FlightAware ADS-B
Fri 11:47:57 PM 37.3600 -119.7130 69° East 496 571 35,000  Level FlightAware ADS-B
Fri 11:48:37 PM 37.3920 -119.6070 69° East 495 570 35,000  Level FlightAware ADS-B
Fri 11:49:22 PM 37.4280 -119.4890 69° East 494 568 35,000  Level FlightAware ADS-B
Fri 11:50:02 PM 37.4610 -119.3820 69° East 493 567 35,000  Level FlightAware ADS-B
Fri 11:50:47 PM 37.4980 -119.2600 69° East 493 567 35,000  Level FlightAware ADS-B
Fri 11:51:27 PM 37.5310 -119.1520 69° East 495 570 35,000  Level FlightAware ADS-B
Fri 11:52:12 PM 37.5680 -119.0280 69° East 497 572 35,000  Level FlightAware ADS-B
Fri 11:52:47 PM 37.5940 -118.9400 70° East 498 573 35,000  Level FlightAware ADS-B
Fri 11:53:32 PM 37.6300 -118.8240 69° East 500 575 35,000  Level FlightAware ADS-B
Fri 11:54:07 PM 37.6570 -118.7300 70° East 505 581 35,000  Level FlightAware ADS-B
Fri 11:54:52 PM 37.6950 -118.6010 70° East 510 587 35,000  Level FlightAware ADS-B
Fri 11:55:42 PM 37.7310 -118.4850 69° East 510 587 35,000  Level FlightAware ADS-B
Fri 11:56:22 PM 37.7590 -118.3910 69° East 510 587 35,000  Level FlightAware ADS-B
Fri 11:57:02 PM 37.7880 -118.2960 69° East 510 587 35,000  Level FlightAware ADS-B
Fri 11:57:47 PM 37.8240 -118.1770 69° East 510 587 35,000  Level FlightAware ADS-B
Fri 11:58:27 PM 37.8530 -118.0820 69° East 510 587 35,000  Level FlightAware ADS-B
Fri 11:59:12 PM 37.8820 -117.9880 69° East 510 587 35,000  Level FlightAware ADS-B
Fri 11:59:52 PM 37.9100 -117.8930 69° East 510 587 35,000  Level FlightAware ADS-B
Sat 12:00:32 AM 37.9753 -117.6389 69° East 535 616 35,000  Level Salt Lake Center
Sat 12:01:35 AM 38.0367 -117.4247 70° East 539 620 35,000  Level Oakland Center
Sat 12:02:36 AM 38.0864 -117.2475 70° East 540 621 35,000  Level Oakland Center
Sat 12:03:37 AM 38.1331 -117.0808 70° East 540 621 35,000  Level Oakland Center
Sat 12:04:37 AM 38.1836 -116.9011 70° East 548 631 35,000  Level Oakland Center
Sat 12:05:37 AM 38.2328 -116.7206 71° East 544 626 35,000  Level Salt Lake Center
Sat 12:06:38 AM 38.2828 -116.5378 71° East 547 629 35,000  Level Salt Lake Center
Sat 12:07:39 AM 38.3322 -116.3544 71° East 548 631 35,000  Level Salt Lake Center
Sat 12:08:41 AM 38.3844 -116.1694 70° East 551 634 35,000  Level Oakland Center
Sat 12:09:42 AM 38.4342 -115.9856 71° East 550 633 35,000  Level Oakland Center
Sat 12:10:42 AM 38.4819 -115.7997 72° East 551 634 35,000  Level Salt Lake Center
Sat 12:11:43 AM 38.5411 -115.5769 71° East 552 635 35,000  Level Salt Lake Center
Sat 12:12:44 AM 38.5900 -115.3908 71° East 553 636 35,000  Level Salt Lake Center
Sat 12:13:45 AM 38.6372 -115.2092 72° East 554 638 35,000  Level Salt Lake Center
Sat 12:14:46 AM 38.6844 -115.0228 72° East 553 636 35,000  Level Salt Lake Center
Sat 12:15:47 AM 38.7344 -114.8347 71° East 553 636 35,000  Level Salt Lake Center
Sat 12:16:49 AM 38.7828 -114.6447 72° East 558 642 35,000  Level Salt Lake Center
Sat 12:17:50 AM 38.8306 -114.4583 72° East 554 638 35,000  Level Salt Lake Center
Sat 12:18:51 AM 38.8775 -114.2700 72° East 554 638 35,000  Level Salt Lake Center
Sat 12:19:52 AM 38.9250 -114.0822 72° East 554 638 35,000  Level Salt Lake Center
Sat 12:20:53 AM 38.9711 -113.8933 73° East 554 638 35,000  Level Salt Lake Center
Sat 12:21:54 AM 39.0169 -113.7064 72° East 551 634 35,000  Level Salt Lake Center
Sat 12:22:55 AM 39.0714 -113.4811 73° East 550 633 35,000  Level Salt Lake Center
Sat 12:23:56 AM 39.1169 -113.2936 73° East 549 632 35,000  Level Salt Lake Center
Sat 12:24:57 AM 39.1619 -113.1069 73° East 548 631 35,000  Level Salt Lake Center
Sat 12:25:58 AM 39.2064 -112.9189 73° East 548 631 35,000  Level Salt Lake Center
Sat 12:26:59 AM 39.2506 -112.7306 73° East 548 631 35,000  Level Salt Lake Center
Sat 12:28:00 AM 39.2894 -112.5625 73° East 549 632 35,000  Level Salt Lake Center
Sat 12:29:01 AM 39.3242 -112.3328 73° East 546 628 35,000  Level Salt Lake Center
Sat 12:30:02 AM 39.3456 -112.1394 82° East 547 629 35,000  Level Salt Lake Center
Sat 12:31:03 AM 39.3675 -111.9458 83° East 547 629 35,000  Level Salt Lake Center
Sat 12:32:04 AM 39.3883 -111.7514 83° East 549 632 35,000  Level Salt Lake Center
Sat 12:33:05 AM 39.4089 -111.5561 83° East 550 633 35,000  Level Salt Lake Center
Sat 12:34:07 AM 39.4300 -111.3450 73° East 552 635 35,000  Level FlightAware ADS-B
Sat 12:34:52 AM 39.4470 -111.1890 82° East 554 638 35,000  Level FlightAware ADS-B
Sat 12:35:07 AM 39.4506 -111.1594 83° East 551 634 35,000  Level Salt Lake Center
Sat 12:35:32 AM 39.4600 -111.0600 83° East 554 638 35,000  Level FlightAware ADS-B
Sat 12:36:12 AM 39.4740 -110.9260 82° East 556 640 35,000  Level FlightAware ADS-B
Sat 12:36:52 AM 39.4870 -110.7930 83° East 556 640 35,000  Level FlightAware ADS-B
Sat 12:37:37 AM 39.5020 -110.6450 82° East 556 640 35,000  Level FlightAware ADS-B
Sat 12:38:22 AM 39.5160 -110.4990 83° East 556 640 35,000  Level FlightAware ADS-B
Sat 12:39:02 AM 39.5290 -110.3670 83° East 557 641 35,000  Level FlightAware ADS-B
Sat 12:39:47 AM 39.5410 -110.2410 83° East 558 642 35,000  Level FlightAware ADS-B
Sat 12:40:27 AM 39.5550 -110.0980 83° East 559 643 35,000  Level FlightAware ADS-B
Sat 12:41:07 AM 39.5670 -109.9680 83° East 559 643 35,000  Level FlightAware ADS-B
Sat 12:41:52 AM 39.5810 -109.8160 83° East 557 641 35,000  Level FlightAware ADS-B
Sat 12:42:32 AM 39.5930 -109.6840 83° East 556 640 35,000  Level FlightAware ADS-B
Sat 12:43:12 AM 39.6050 -109.5510 83° East 556 640 35,000  Level FlightAware ADS-B
Sat 12:43:57 AM 39.6180 -109.4000 84° East 555 639 35,000  Level FlightAware ADS-B
Sat 12:44:37 AM 39.6300 -109.2670 83° East 553 636 35,000  Level FlightAware ADS-B
Sat 12:45:22 AM 39.6410 -109.1320 84° East 549 632 35,000  Level FlightAware ADS-B
Sat 12:46:02 AM 39.6540 -108.9880 83° East 547 629 35,000  Level FlightAware ADS-B
Sat 12:46:47 AM 39.6670 -108.8330 84° East 546 628 35,000  Level FlightAware ADS-B
Sat 12:47:27 AM 39.6770 -108.7020 84° East 546 628 35,000  Level FlightAware ADS-B
Sat 12:48:12 AM 39.6890 -108.5560 84° East 545 627 35,000  Level FlightAware ADS-B
Sat 12:48:52 AM 39.7000 -108.4260 84° East 546 628 35,000  Level FlightAware ADS-B
Sat 12:49:32 AM 39.7090 -108.3010 85° East 549 632 35,000  Level FlightAware ADS-B
Sat 12:50:17 AM 39.7210 -108.1490 84° East 551 634 35,000  Level FlightAware ADS-B
Sat 12:50:57 AM 39.7310 -108.0180 84° East 552 635 35,000  Level FlightAware ADS-B
Sat 12:51:42 AM 39.7420 -107.8720 84° East 553 636 35,000  Level FlightAware ADS-B
Sat 12:52:22 AM 39.7520 -107.7360 84° East 553 636 35,000  Level FlightAware ADS-B
Sat 12:53:02 AM 39.7610 -107.6100 85° East 553 636 35,000  Level FlightAware ADS-B
Sat 12:53:47 AM 39.7720 -107.4650 84° East 551 634 35,000  Level FlightAware ADS-B
Sat 12:54:20 AM 39.7806 -107.3400 85° East 549 632 35,000  Level FlightAware ADS-B
Sat 12:54:51 AM 39.7876 -107.2390 85° East 549 632 35,000  Level FlightAware ADS-B
Sat 12:55:21 AM 39.7945 -107.1400 85° East 549 632 35,000  Level FlightAware ADS-B
Sat 12:55:52 AM 39.8012 -107.0400 85° East 549 632 35,000  Level FlightAware ADS-B
Sat 12:56:22 AM 39.8079 -106.9400 85° East 551 634 35,000  Level FlightAware ADS-B
Sat 12:56:52 AM 39.8145 -106.8410 85° East 552 635 35,000  Level FlightAware ADS-B
Sat 12:57:25 AM 39.8214 -106.7330 85° East 553 636 35,000  Level FlightAware ADS-B
Sat 12:57:55 AM 39.8278 -106.6340 85° East 555 639 35,000  Level FlightAware ADS-B
Sat 12:58:25 AM 39.8342 -106.5330 85° East 556 640 35,000  Level FlightAware ADS-B
Sat 12:59:03 AM 39.8420 -106.4070 85° East 556 640 35,000  Level FlightAware ADS-B
Sat 12:59:35 AM 39.8483 -106.3030 85° East 555 639 35,000  Level FlightAware ADS-B
Sat 01:00:06 AM 39.8545 -106.2010 85° East 556 640 35,000  Level FlightAware ADS-B
Sat 01:00:36 AM 39.8605 -106.0980 86° East 556 640 35,000  Level FlightAware ADS-B
Sat 01:01:06 AM 39.8664 -105.9990 86° East 557 641 35,000  Level FlightAware ADS-B
Sat 01:01:38 AM 39.8725 -105.8930 86° East 556 640 35,000  Level FlightAware ADS-B
Sat 01:02:10 AM 39.8786 -105.7860 86° East 556 640 35,000  Level FlightAware ADS-B
Sat 01:02:40 AM 39.8842 -105.6860 86° East 555 639 35,000  Level FlightAware ADS-B
Sat 01:03:12 AM 39.8899 -105.5820 86° East 554 638 35,000  Level FlightAware ADS-B
Sat 01:03:42 AM 39.8953 -105.4820 86° East 554 638 35,000  Level FlightAware ADS-B
Sat 01:04:12 AM 39.9007 -105.3800 86° East 558 642 35,000  Level FlightAware ADS-B
Sat 01:04:42 AM 39.9060 -105.2800 86° East 559 643 35,000  Level FlightAware ADS-B
Sat 01:05:12 AM 39.9111 -105.1780 86° East 561 646 35,000  Level FlightAware ADS-B
Sat 01:05:43 AM 39.9170 -105.0760 86° East 564 649 35,000  Level FlightAware ADS-B
Sat 01:06:13 AM 39.9258 -104.9740 84° East 564 649 35,000  Level FlightAware ADS-B
Sat 01:06:43 AM 39.9349 -104.8710 83° East 565 650 35,000  Level FlightAware ADS-B
Sat 01:07:14 AM 39.9437 -104.7700 83° East 564 649 35,000  Level FlightAware ADS-B
Sat 01:07:44 AM 39.9522 -104.6680 84° East 562 647 35,000  Level FlightAware ADS-B
Sat 01:08:15 AM 39.9606 -104.5630 84° East 564 649 35,000  Level FlightAware ADS-B
Sat 01:08:45 AM 39.9685 -104.4610 84° East 565 650 35,000  Level FlightAware ADS-B
Sat 01:09:16 AM 39.9763 -104.3590 84° East 564 649 35,000  Level FlightAware ADS-B
Sat 01:09:46 AM 39.9841 -104.2560 84° East 565 650 35,000  Level FlightAware ADS-B
Sat 01:10:16 AM 39.9917 -104.1540 84° East 564 649 35,000  Level FlightAware ADS-B
Sat 01:10:47 AM 39.9994 -104.0500 84° East 564 649 35,000  Level FlightAware ADS-B
Sat 01:11:17 AM 40.0069 -103.9490 84° East 563 648 35,000  Level FlightAware ADS-B
Sat 01:11:47 AM 40.0143 -103.8470 85° East 563 648 35,000  Level FlightAware ADS-B
Sat 01:12:18 AM 40.0216 -103.7450 85° East 561 646 35,000  Level FlightAware ADS-B
Sat 01:12:48 AM 40.0288 -103.6430 85° East 560 644 35,000  Level FlightAware ADS-B
Sat 01:13:18 AM 40.0359 -103.5420 85° East 559 643 35,000  Level FlightAware ADS-B
Sat 01:13:48 AM 40.0429 -103.4410 85° East 559 643 35,000  Level FlightAware ADS-B
Sat 01:14:18 AM 40.0499 -103.3400 85° East 558 642 35,000  Level FlightAware ADS-B
Sat 01:14:49 AM 40.0568 -103.2380 85° East 559 643 35,000  Level FlightAware ADS-B
Sat 01:15:19 AM 40.0636 -103.1370 85° East 561 646 35,000  Level FlightAware ADS-B
Sat 01:15:49 AM 40.0703 -103.0350 85° East 562 647 35,000  Level FlightAware ADS-B
Sat 01:16:19 AM 40.0770 -102.9320 85° East 562 647 35,000  Level FlightAware ADS-B
Sat 01:16:50 AM 40.0836 -102.8290 85° East 563 648 35,000  Level FlightAware ADS-B
Sat 01:17:20 AM 40.0900 -102.7260 85° East 564 649 35,000  Level FlightAware ADS-B
Sat 01:17:51 AM 40.0964 -102.6240 85° East 564 649 35,000  Level FlightAware ADS-B
Sat 01:18:22 AM 40.1028 -102.5190 85° East 562 647 35,000  Level FlightAware ADS-B
Sat 01:18:52 AM 40.1090 -102.4180 85° East 562 647 35,000  Level FlightAware ADS-B
Sat 01:19:22 AM 40.1151 -102.3150 86° East 564 649 35,000  Level FlightAware ADS-B
Sat 01:19:53 AM 40.1212 -102.2120 86° East 564 649 35,000  Level FlightAware ADS-B
Sat 01:20:23 AM 40.1271 -102.1100 86° East 566 651 35,000  Level FlightAware ADS-B
Sat 01:20:55 AM 40.1333 -102.0000 86° East 567 652 35,000  Level FlightAware ADS-B
Sat 01:21:26 AM 40.1392 -101.8940 86° East 568 654 35,000  Level FlightAware ADS-B
Sat 01:21:56 AM 40.1449 -101.7900 86° East 570 656 35,000  Level FlightAware ADS-B
Sat 01:22:27 AM 40.1506 -101.6860 86° East 571 657 35,000  Level FlightAware ADS-B
Sat 01:22:57 AM 40.1561 -101.5810 86° East 571 657 35,000  Level FlightAware ADS-B
Sat 01:23:27 AM 40.1616 -101.4780 86° East 572 658 35,000  Level FlightAware ADS-B
Sat 01:23:58 AM 40.1669 -101.3730 86° East 573 659 35,000  Level FlightAware ADS-B
Sat 01:24:28 AM 40.1723 -101.2680 86° East 573 659 35,000  Level FlightAware ADS-B
Sat 01:24:59 AM 40.1775 -101.1610 86° East 572 658 35,000  Level FlightAware ADS-B
Sat 01:26:09 AM 40.1872 -100.9606 86° East 570 656 35,000  Level Denver Center
Sat 01:27:09 AM 40.1969 -100.7317 87° East 569 655 35,000  Level Denver Center
Sat 01:28:21 AM 40.2067 -100.5019 87° East 570 656 35,000  Level Denver Center
Sat 01:29:22 AM 40.2092 -100.2717 89° East 571 657 35,000  Level Denver Center
Sat 01:30:22 AM 40.2111 -100.0739 89° East 570 656 35,000  Level Denver Center
Sat 01:31:23 AM 40.2144 -99.8603 89° East 571 657 35,000  Level Denver Center
Sat 01:32:23 AM 40.2169 -99.6533 89° East 571 657 35,000  Level Denver Center
Sat 01:33:23 AM 40.2189 -99.4467 89° East 570 656 35,000  Level Denver Center
Sat 01:34:24 AM 40.2206 -99.2408 89° East 569 655 35,000  Level Denver Center
Sat 01:35:24 AM 40.2214 -99.0336 90° East 570 656 35,000  Level Denver Center
Sat 01:36:18 AM 40.2217 -98.8706 90° East 570 656 35,000  Level Minneapolis Center
Sat 01:37:18 AM 40.2222 -98.6239 90° East 568 654 35,000  Level Minneapolis Center
Sat 01:38:18 AM 40.2222 -98.4183 90° East 568 654 35,000  Level Minneapolis Center
Sat 01:39:18 AM 40.2217 -98.2133 90° East 567 652 35,000  Level Minneapolis Center
Sat 01:40:19 AM 40.2206 -98.0078 90° East 567 652 35,000  Level Minneapolis Center
Sat 01:41:19 AM 40.2203 -97.8022 90° East 567 652 35,000  Level Minneapolis Center
Sat 01:42:19 AM 40.2189 -97.5961 90° East 568 654 35,000  Level Minneapolis Center
Sat 01:43:19 AM 40.2172 -97.3919 91° East 565 650 35,000  Level Minneapolis Center
Sat 01:44:19 AM 40.2153 -97.2242 91° East 565 650 35,000  Level Minneapolis Center
Sat 01:45:20 AM 40.2128 -96.9786 91° East 565 650 35,000  Level Minneapolis Center
Sat 01:46:20 AM 40.2092 -96.7736 91° East 565 650 35,000  Level Minneapolis Center
Sat 01:47:20 AM 40.2067 -96.5697 91° East 564 649 35,000  Level Minneapolis Center
Sat 01:48:20 AM 40.2033 -96.3675 91° East 562 647 35,000  Level Minneapolis Center
Sat 01:49:20 AM 40.2056 -96.1672 89° East 557 641 35,000  Level Minneapolis Center
Sat 01:50:21 AM 40.2403 -95.9714 77° East 557 641 35,000  Level Minneapolis Center
Sat 01:51:21 AM 40.2792 -95.7747 75° East 559 643 35,000  Level Minneapolis Center
Sat 01:52:21 AM 40.3153 -95.5831 76° East 554 638 35,000  Level Minneapolis Center
Sat 01:53:21 AM 40.3517 -95.3853 76° East 555 639 35,000  Level Minneapolis Center
Sat 01:54:21 AM 40.3861 -95.1914 77° East 553 636 35,000  Level Minneapolis Center
Sat 01:55:21 AM 40.4211 -94.9950 77° East 554 638 35,000  Level Minneapolis Center
Sat 01:56:22 AM 40.4558 -94.8003 77° East 552 635 35,000  Level Minneapolis Center
Sat 01:57:22 AM 40.4900 -94.6061 77° East 549 632 35,000  Level Minneapolis Center
Sat 01:58:22 AM 40.5217 -94.4175 77° East 548 631 35,000  Level Minneapolis Center
Sat 01:59:22 AM 40.5544 -94.2236 79° East 547 629 35,000  Level Minneapolis Center
Sat 02:00:22 AM 40.5858 -94.0314 79° East 544 626 35,000  Level Minneapolis Center
Sat 02:01:22 AM 40.6117 -93.8361 80° East 546 628 35,000  Level Minneapolis Center
Sat 02:03:12 AM 40.6720 -93.4630 77° East 540 621 35,000  Level FlightAware ADS-B
Sat 02:03:57 AM 40.6930 -93.3200 79° East 539 620 35,000  Level FlightAware ADS-B
Sat 02:04:37 AM 40.7110 -93.1870 80° East 536 617 35,000  Level FlightAware ADS-B
Sat 02:05:22 AM 40.7310 -93.0470 79° East 534 615 35,000  Level FlightAware ADS-B
Sat 02:06:02 AM 40.7480 -92.9160 80° East 532 612 35,000  Level FlightAware ADS-B
Sat 02:06:42 AM 40.7650 -92.7910 80° East 531 611 35,000  Level FlightAware ADS-B
Sat 02:07:27 AM 40.7840 -92.6580 79° East 530 610 35,000  Level FlightAware ADS-B
Sat 02:08:07 AM 40.8020 -92.5220 80° East 529 609 35,000  Level FlightAware ADS-B
Sat 02:08:42 AM 40.8170 -92.4130 80° East 527 606 35,000  Level FlightAware ADS-B
Sat 02:09:32 AM 40.8380 -92.2510 80° East 526 605 35,000  Level FlightAware ADS-B
Sat 02:10:12 AM 40.8540 -92.1310 80° East 525 604 35,000  Level FlightAware ADS-B
Sat 02:10:57 AM 40.8730 -91.9860 80° East 523 602 35,000  Level FlightAware ADS-B
Sat 02:11:32 AM 40.8880 -91.8720 80° East 521 600 35,000  Level FlightAware ADS-B
Sat 02:12:12 AM 40.9040 -91.7460 80° East 518 596 35,000  Level FlightAware ADS-B
Sat 02:12:57 AM 40.9210 -91.6130 80° East 517 595 35,000  Level FlightAware ADS-B
Sat 02:13:37 AM 40.9370 -91.4890 80° East 517 595 35,000  Level FlightAware ADS-B
Sat 02:14:07 AM 40.9490 -91.3920 81° East 517 595 35,000  Level FlightAware ADS-B
Sat 02:14:47 AM 40.9640 -91.2690 81° East 519 597 35,000  Level FlightAware ADS-B
Sat 02:15:27 AM 40.9800 -91.1450 80° East 519 597 35,000  Level FlightAware ADS-B
Sat 02:16:07 AM 40.9950 -91.0160 81° East 520 598 35,000  Level FlightAware ADS-B
Sat 02:16:52 AM 41.0130 -90.8730 80° East 522 601 35,000  Level FlightAware ADS-B
Sat 02:17:37 AM 41.0220 -90.7340 85° East 526 605 35,000  Level FlightAware ADS-B
Sat 02:18:17 AM 41.0280 -90.6040 86° East 528 608 35,000  Level FlightAware ADS-B
Sat 02:18:57 AM 41.0310 -90.4740 88° East 529 609 35,000  Level FlightAware ADS-B
Sat 02:19:42 AM 41.0350 -90.3250 88° East 530 610 35,000  Level FlightAware ADS-B
Sat 02:20:22 AM 41.0380 -90.1950 88° East 532 612 35,000  Level FlightAware ADS-B
Sat 02:21:02 AM 41.0400 -90.0660 89° East 533 613 35,000  Level FlightAware ADS-B
Sat 02:21:47 AM 41.0430 -89.9240 88° East 534 615 35,000  Level FlightAware ADS-B
Sat 02:22:32 AM 41.0460 -89.7750 88° East 535 616 35,000  Level FlightAware ADS-B
Sat 02:23:12 AM 41.0480 -89.6430 89° East 536 617 35,000  Level FlightAware ADS-B
Sat 02:23:52 AM 41.0510 -89.5100 88° East 537 618 35,000  Level FlightAware ADS-B
Sat 02:24:32 AM 41.0530 -89.3770 89° East 538 619 35,000  Level FlightAware ADS-B
Sat 02:25:17 AM 41.0550 -89.2360 89° East 538 619 35,000  Level FlightAware ADS-B
Sat 02:26:02 AM 41.0570 -89.0860 89° East 540 621 35,000  Level FlightAware ADS-B
Sat 02:26:42 AM 41.0580 -88.9500 89° East 542 624 35,000  Level FlightAware ADS-B
Sat 02:27:22 AM 41.0600 -88.8190 89° East 543 625 35,000  Level FlightAware ADS-B
Sat 02:28:07 AM 41.0610 -88.6710 89° East 544 626 35,000  Level FlightAware ADS-B
Sat 02:28:47 AM 41.0620 -88.5400 89° East 544 626 35,000  Level FlightAware ADS-B
Sat 02:29:27 AM 41.0630 -88.4060 89° East 544 626 35,000  Level FlightAware ADS-B
Sat 02:30:12 AM 41.0640 -88.2540 89° East 545 627 35,000  Level FlightAware ADS-B
Sat 02:30:52 AM 41.0650 -88.1180 89° East 548 631 35,000  Level FlightAware ADS-B
Sat 02:31:37 AM 41.0650 -87.9680 90° East 550 633 35,000  Level FlightAware ADS-B
Sat 02:32:17 AM 41.0650 -87.8390 90° East 551 634 35,000  Level FlightAware ADS-B
Sat 02:32:52 AM 41.0650 -87.7170 90° East 552 635 35,000  Level FlightAware ADS-B
Sat 02:33:42 AM 41.0650 -87.5460 90° East 553 636 35,000  Level FlightAware ADS-B
Sat 02:34:22 AM 41.0650 -87.4210 90° East 554 638 35,000  Level FlightAware ADS-B
Sat 02:35:07 AM 41.0650 -87.2640 90° East 556 640 35,000  Level FlightAware ADS-B
Sat 02:35:47 AM 41.0640 -87.1280 91° East 557 641 35,000  Level FlightAware ADS-B
Sat 02:36:32 AM 41.0640 -86.9710 90° East 558 642 35,000  Level FlightAware ADS-B
Sat 02:37:12 AM 41.0630 -86.8330 91° East 559 643 35,000  Level FlightAware ADS-B
Sat 02:37:52 AM 41.0620 -86.6980 91° East 560 644 35,000  Level FlightAware ADS-B
Sat 02:38:37 AM 41.0600 -86.5460 91° East 561 646 35,000  Level FlightAware ADS-B
Sat 02:39:17 AM 41.0590 -86.4040 90° East 562 647 35,000  Level FlightAware ADS-B
Sat 02:39:57 AM 41.0570 -86.2730 91° East 563 648 35,000  Level FlightAware ADS-B
Sat 02:40:42 AM 41.0550 -86.1220 91° East 564 649 35,000  Level FlightAware ADS-B
Sat 02:41:22 AM 41.0530 -85.9750 91° East 565 650 35,000  Level FlightAware ADS-B
Sat 02:42:07 AM 41.0510 -85.8230 91° East 566 651 35,000  Level FlightAware ADS-B
Sat 02:42:47 AM 41.0490 -85.6930 91° East 567 652 35,000  Level FlightAware ADS-B
Sat 02:43:32 AM 41.0460 -85.5240 91° East 567 652 35,000  Level FlightAware ADS-B
Sat 02:44:12 AM 41.0440 -85.3900 91° East 567 652 35,000  Level FlightAware ADS-B
Sat 02:44:52 AM 41.0410 -85.2530 92° East 569 655 35,000  Level FlightAware ADS-B
Sat 02:45:37 AM 41.0370 -85.1010 92° East 572 658 35,000  Level FlightAware ADS-B
Sat 02:46:17 AM 41.0370 -84.9510 90° East 571 657 35,000  Level FlightAware ADS-B
Sat 02:46:57 AM 41.0400 -84.8150 88° East 572 658 35,000  Level FlightAware ADS-B
Sat 02:47:42 AM 41.0420 -84.6600 89° East 574 661 35,000  Level FlightAware ADS-B
Sat 02:48:22 AM 41.0440 -84.5210 89° East 575 662 35,000  Level FlightAware ADS-B
Sat 02:49:07 AM 41.0450 -84.3600 89° East 576 663 35,000  Level FlightAware ADS-B
Sat 02:49:47 AM 41.0460 -84.2180 89° East 577 664 35,000  Level FlightAware ADS-B
Sat 02:50:27 AM 41.0470 -84.0780 89° East 579 666 35,000  Level FlightAware ADS-B
Sat 02:51:12 AM 41.0470 -83.9220 90° East 580 667 35,000  Level FlightAware ADS-B
Sat 02:51:52 AM 41.0470 -83.7790 90° East 581 669 35,000  Level FlightAware ADS-B
Sat 02:52:37 AM 41.0480 -83.6150 89° East 582 670 35,000  Level FlightAware ADS-B
Sat 02:53:17 AM 41.0480 -83.4730 90° East 584 672 35,000  Level FlightAware ADS-B
Sat 02:53:57 AM 41.0480 -83.3270 90° East 587 676 35,000  Level FlightAware ADS-B
Sat 02:54:42 AM 41.0470 -83.1770 90° East 590 679 35,000  Level FlightAware ADS-B
Sat 02:55:17 AM 41.0470 -83.0460 90° East 592 681 35,000  Level FlightAware ADS-B
Sat 02:56:07 AM 41.0460 -82.8720 90° East 595 685 35,000  Level FlightAware ADS-B
Sat 02:56:47 AM 41.0450 -82.7140 90° East 598 688 35,000  Level FlightAware ADS-B
Sat 02:57:27 AM 41.0440 -82.5810 91° East 600 690 35,000  Level FlightAware ADS-B
Sat 02:58:12 AM 41.0420 -82.4040 91° East 602 693 35,000  Level FlightAware ADS-B
Sat 02:58:52 AM 41.0410 -82.2560 90° East 603 694 35,000  Level FlightAware ADS-B
Sat 02:59:22 AM 41.0400 -82.1460 91° East 602 693 35,000  Level FlightAware ADS-B
Sat 03:00:02 AM 41.0380 -81.9970 91° East 600 690 35,000  Level FlightAware ADS-B
Sat 03:00:47 AM 41.0350 -81.8300 91° East 598 688 35,000  Level FlightAware ADS-B
Sat 03:01:27 AM 41.0330 -81.6910 91° East 596 686 35,000  Level FlightAware ADS-B
Sat 03:02:07 AM 41.0310 -81.5440 91° East 596 686 35,000  Level FlightAware ADS-B
Sat 03:02:52 AM 41.0280 -81.3800 91° East 595 685 35,000  Level FlightAware ADS-B
Sat 03:03:32 AM 41.0250 -81.2330 92° East 594 684 35,000  Level FlightAware ADS-B
Sat 03:04:12 AM 41.0220 -81.0880 92° East 591 680 35,000  Level FlightAware ADS-B
Sat 03:04:57 AM 41.0190 -80.9320 91° East 588 677 35,000  Level FlightAware ADS-B
Sat 03:05:37 AM 41.0150 -80.7850 92° East 587 676 35,000  Level FlightAware ADS-B
Sat 03:06:22 AM 41.0110 -80.6190 92° East 587 676 35,000 400 Level FlightAware ADS-B
Sat 03:07:07 AM 41.0070 -80.4560 92° East 589 678 35,600 1,271 Climbing FlightAware ADS-B
Sat 03:07:47 AM 41.0030 -80.3210 92° East 572 658 36,800 1,050 Climbing FlightAware ADS-B
Sat 03:08:27 AM 40.9990 -80.1820 92° East 569 655 37,000 141 Climbing FlightAware ADS-B
Sat 03:09:12 AM 40.9950 -80.0240 92° East 568 654 37,000  Level FlightAware ADS-B
Sat 03:09:52 AM 40.9900 -79.8850 93° East 567 652 37,000  Level FlightAware ADS-B
Sat 03:10:32 AM 40.9860 -79.7460 92° East 566 651 37,000  Level FlightAware ADS-B
Sat 03:11:17 AM 40.9810 -79.5880 92° East 565 650 37,000  Level FlightAware ADS-B
Sat 03:11:57 AM 40.9760 -79.4680 93° East 565 650 37,000  Level FlightAware ADS-B
Sat 03:12:52 AM 40.9700 -79.2770 92° East 565 650 37,000  Level FlightAware ADS-B
Sat 03:13:32 AM 40.9650 -79.1450 93° East 562 647 37,000  Level FlightAware ADS-B
Sat 03:14:17 AM 40.9580 -78.9840 93° East 560 644 37,000  Level FlightAware ADS-B
Sat 03:14:57 AM 40.9530 -78.8520 93° East 559 643 37,000  Level FlightAware ADS-B
Sat 03:15:57 AM 40.9440 -78.6390 93° East 561 646 37,000  Level FlightAware ADS-B
Sat 03:16:37 AM 40.9390 -78.5090 93° East 562 647 37,000  Level FlightAware ADS-B
Sat 03:17:17 AM 40.9340 -78.4030 94° East 562 647 37,000  Level FlightAware ADS-B
Sat 03:18:02 AM 40.9280 -78.2570 93° East 562 647 37,000  Level FlightAware ADS-B
Sat 03:18:44 AM 40.9176 -78.0526 94° East 566 651 37,000  Level FlightAware ADS-B
Sat 03:19:15 AM 40.9125 -77.9456 94° East 568 654 37,000  Level FlightAware ADS-B
Sat 03:19:45 AM 40.9073 -77.8400 94° East 566 651 37,000  Level FlightAware ADS-B
Sat 03:20:16 AM 40.9021 -77.7340 94° East 566 651 37,000  Level FlightAware ADS-B
Sat 03:20:47 AM 40.8967 -77.6275 94° East 568 654 37,000  Level FlightAware ADS-B
Sat 03:21:18 AM 40.8911 -77.5211 94° East 568 654 37,000  Level FlightAware ADS-B
Sat 03:21:48 AM 40.8856 -77.4176 94° East 567 652 37,000  Level FlightAware ADS-B
Sat 03:22:19 AM 40.8800 -77.3120 94° East 568 654 37,000  Level FlightAware ADS-B
Sat 03:22:49 AM 40.8742 -77.2078 94° East 567 652 37,000  Level FlightAware ADS-B
Sat 03:23:20 AM 40.8681 -77.0985 94° East 568 654 37,000  Level FlightAware ADS-B
Sat 03:23:51 AM 40.8622 -76.9940 94° East 568 654 37,000  Level FlightAware ADS-B
Sat 03:24:21 AM 40.8562 -76.8887 94° East 567 652 37,000  Level FlightAware ADS-B
Sat 03:24:52 AM 40.8501 -76.7836 94° East 567 652 37,000  Level FlightAware ADS-B
Sat 03:25:22 AM 40.8439 -76.6787 94° East 567 652 37,000  Level FlightAware ADS-B
Sat 03:25:52 AM 40.8377 -76.5752 94° East 566 651 37,000  Level FlightAware ADS-B
Sat 03:26:23 AM 40.8313 -76.4701 95° East 566 651 37,000  Level FlightAware ADS-B
Sat 03:26:53 AM 40.8248 -76.3668 95° East 566 651 37,000  Level FlightAware ADS-B
Sat 03:27:23 AM 40.8183 -76.2632 95° East 565 650 37,000  Level FlightAware ADS-B
Sat 03:27:54 AM 40.8117 -76.1601 95° East 564 649 37,000  Level FlightAware ADS-B
Sat 03:28:24 AM 40.8050 -76.0563 95° East 563 648 37,000  Level FlightAware ADS-B
Sat 03:28:54 AM 40.7982 -75.9535 95° East 563 648 37,000  Level FlightAware ADS-B
Sat 03:29:24 AM 40.7914 -75.8502 95° East 564 649 37,000  Level FlightAware ADS-B
Sat 03:29:54 AM 40.7844 -75.7464 95° East 563 648 37,000  Level FlightAware ADS-B
Sat 03:30:25 AM 40.7773 -75.6432 95° East 564 649 37,000  Level FlightAware ADS-B
Sat 03:30:55 AM 40.7701 -75.5397 95° East 563 648 37,000  Level FlightAware ADS-B
Sat 03:31:25 AM 40.7630 -75.4369 95° East 564 649 37,000  Level FlightAware ADS-B
Sat 03:31:55 AM 40.7557 -75.3345 95° East 563 648 37,000  Level FlightAware ADS-B
Sat 03:32:26 AM 40.7482 -75.2303 95° East 565 650 37,000  Level FlightAware ADS-B
Sat 03:32:56 AM 40.7406 -75.1273 96° East 564 649 37,000  Level FlightAware ADS-B
Sat 03:33:26 AM 40.7330 -75.0244 96° East 565 650 37,000  Level FlightAware ADS-B
Sat 03:33:56 AM 40.7253 -74.9203 96° East 564 649 37,000  Level FlightAware ADS-B
Sat 03:34:27 AM 40.7175 -74.8170 96° East 565 650 37,000  Level FlightAware ADS-B
Sat 03:34:57 AM 40.7095 -74.7137 96° East 563 648 37,000  Level FlightAware ADS-B
Sat 03:35:29 AM 40.7012 -74.6063 96° East 564 649 37,000  Level FlightAware ADS-B
Sat 03:35:59 AM 40.6931 -74.5027 96° East 563 648 37,000  Level FlightAware ADS-B
Sat 03:36:08 AM 40.6913 -74.4707 94° East 563 648 37,000  Level FlightAware ADS-B
Sat 03:36:39 AM 40.6975 -74.3671 85° East 560 644 37,000  Level FlightAware ADS-B
Sat 03:37:09 AM 40.7076 -74.2661 82° East 559 643 37,000  Level FlightAware ADS-B
Sat 03:37:24 AM 40.7124 -74.2139 83° East 559 643 37,000  Level FlightAware ADS-B
Sat 03:37:39 AM 40.7168 -74.1646 83° East 559 643 37,000  Level FlightAware ADS-B
Sat 03:38:09 AM 40.7248 -74.0620 84° East 560 644 37,000  Level FlightAware ADS-B
Sat 03:38:40 AM 40.7320 -73.9594 85° East 559 643 37,000  Level FlightAware ADS-B
Sat 03:39:10 AM 40.7386 -73.8570 85° East 560 644 37,000  Level FlightAware ADS-B
Sat 03:39:39 AM 40.7447 -73.7587 85° East 559 643 37,000  Level FlightAware ADS-B
Sat 03:40:09 AM 40.7528 -73.6559 84° East 560 644 37,000  Level FlightAware ADS-B
Sat 03:40:40 AM 40.7616 -73.5536 83° East 558 642 37,000  Level FlightAware ADS-B
Sat 03:41:10 AM 40.7701 -73.4510 84° East 558 642 37,000  Level FlightAware ADS-B
Sat 03:41:41 AM 40.7786 -73.3473 84° East 558 642 37,000  Level FlightAware ADS-B
Sat 03:42:11 AM 40.7869 -73.2444 84° East 558 642 37,000  Level FlightAware ADS-B
Sat 03:42:41 AM 40.7951 -73.1417 84° East 558 642 37,000  Level FlightAware ADS-B
Sat 03:43:12 AM 40.8030 -73.0400 84° East 558 642 37,000  Level FlightAware ADS-B
Sat 03:43:42 AM 40.8110 -72.9374 84° East 558 642 37,000  Level FlightAware ADS-B
Sat 03:44:12 AM 40.8187 -72.8349 84° East 559 643 37,000  Level FlightAware ADS-B
Sat 03:44:43 AM 40.8264 -72.7331 84° East 559 643 37,000  Level FlightAware ADS-B
Sat 03:45:13 AM 40.8341 -72.6311 84° East 560 644 37,000  Level FlightAware ADS-B
Sat 03:45:43 AM 40.8417 -72.5287 84° East 560 644 37,000  Level FlightAware ADS-B
Sat 03:46:13 AM 40.8492 -72.4266 84° East 560 644 37,000  Level FlightAware ADS-B
Sat 03:46:43 AM 40.8565 -72.3249 85° East 559 643 37,000  Level FlightAware ADS-B
Sat 03:47:13 AM 40.8639 -72.2220 85° East 558 642 37,000  Level FlightAware ADS-B
Sat 03:47:44 AM 40.8713 -72.1185 85° East 558 642 37,000  Level FlightAware ADS-B
Sat 03:48:14 AM 40.8785 -72.0158 85° East 559 643 37,000  Level FlightAware ADS-B
Sat 03:48:45 AM 40.8857 -71.9127 85° East 559 643 37,000  Level FlightAware ADS-B
Sat 03:49:15 AM 40.8926 -71.8104 85° East 560 644 37,000  Level FlightAware ADS-B
Sat 03:49:45 AM 40.8995 -71.7076 85° East 559 643 37,000  Level FlightAware ADS-B
Sat 03:50:17 AM 40.9067 -71.6002 85° East 560 644 37,000  Level FlightAware ADS-B
Sat 03:50:48 AM 40.9138 -71.4918 85° East 561 646 37,000  Level FlightAware ADS-B
Sat 03:51:19 AM 40.9203 -71.3897 85° East 560 644 37,000  Level FlightAware ADS-B
Sat 03:51:50 AM 40.9270 -71.2838 85° East 561 646 37,000  Level FlightAware ADS-B
Sat 03:52:20 AM 40.9336 -71.1795 85° East 561 646 37,000  Level FlightAware ADS-B
Sat 03:52:51 AM 40.9400 -71.0756 85° East 561 646 37,000  Level FlightAware ADS-B
Sat 03:53:40 AM 40.9501 -70.9083 85° East 562 647 37,000  Level FlightAware ADS-B
Sat 03:54:12 AM 40.9567 -70.7971 85° East 563 648 37,000 529 Level FlightAware ADS-B
Sat 03:55:22 AM 40.9690 -70.5780 86° East 566 651 37,900 991 Climbing FlightAware ADS-B
Sat 03:56:07 AM 40.9790 -70.4070 86° East 565 650 38,900 776 Climbing FlightAware ADS-B
Sat 03:56:47 AM 40.9860 -70.2830 86° East 567 652 39,000 75 Climbing FlightAware ADS-B
Sat 03:57:27 AM 40.9940 -70.1320 86° East 568 654 39,000  Level FlightAware ADS-B
Sat 03:58:12 AM 41.0020 -69.9870 86° East 569 655 39,000  Level FlightAware ADS-B
Sat 03:58:52 AM 41.0080 -69.8710 86° East 569 655 39,000  Level FlightAware ADS-B
Sat 03:59:32 AM 41.0140 -69.7530 86° East 569 655 39,000  Level FlightAware ADS-B
Sat 04:00:17 AM 41.0220 -69.6050 86° East 569 655 39,000  Level FlightAware ADS-B
Sat 04:00:57 AM 41.0280 -69.4870 86° East 569 655 39,000  Level FlightAware ADS-B
Sat 04:01:38 AM 41.0311 -69.3008 86° East 566 651 39,000 -61 Level New York Center
Sat 04:02:36 AM 41.0411 -69.0944 86° East 566 651 38,900 -50 Descending New York Center
Sat 04:03:38 AM 41.0506 -68.8850 87° East 566 651 38,900 50 Level New York Center
Sat 04:04:36 AM 41.0594 -68.6758 87° East 566 651 39,000  Climbing New York Center
Sat 04:05:38 AM 41.0683 -68.4664 87° East 571 657 38,900 -50 Descending New York Center
Sat 04:06:36 AM 41.0786 -68.2542 86° East 571 657 38,900 51 Level New York Center
Sat 04:07:36 AM 41.0847 -68.0447 88° East 571 657 39,000 50 Climbing New York Center
Sat 04:08:36 AM 41.0881 -67.8328 89° East 571 657 39,000 -50 Level New York Center
Sat 04:09:37 AM 41.0972 -67.6203 87° East 571 657 38,900 -50 Descending New York Center
Sat 04:10:36 AM 41.1022 -67.4108 88° East 571 657 38,900 50 Level New York Center
Sat 04:11:36 AM 41.1086 -67.1986 88° East 571 657 39,000 55 Climbing New York Center
Sat 04:12:26 AM 41.1167 -67.0000 78° East 571 657 39,000  Level New York Oceanic (ODAPS)
Sat 04:13:39 AM 41.1475 -66.7806 78° East 576 663 39,000  Level New York Center
Sat 04:15:00 AM 41.1736 -66.5122 78° East  Level FlightAware Approximate
Sat 04:16:27 AM 41.2500 -66.1667 79° East 576 663 39,000  Level New York Oceanic (ODAPS)
Sat 04:19:40 AM 41.3500 -65.5000 79° East 576 663 39,000  Level New York Oceanic (ODAPS)
Sat 04:20:52 AM 41.3500 -65.5000 79° East 576 663 39,000  Level New York Oceanic (ODAPS)
Sat 04:22:00 AM 41.4262 -64.9453 80° East 576 663 39,000  Level FlightAware Transoceanic
Sat 04:23:00 AM 41.4544 -64.7411 80° East 576 663 39,000  Level FlightAware Transoceanic
Sat 04:24:00 AM 41.4821 -64.5367 80° East 576 663 39,000  Level FlightAware Transoceanic
Sat 04:25:00 AM 41.4953 -64.4513 80° East 576 663 39,000  Level FlightAware Transoceanic
Sat 04:26:00 AM 41.5232 -64.2410 80° East 576 663 39,000  Level FlightAware Transoceanic
Sat 04:27:00 AM 41.5507 -64.0305 80° East 576 663 39,000  Level FlightAware Transoceanic
Sat 04:28:00 AM 41.5779 -63.8198 80° East 576 663 39,000  Level FlightAware Transoceanic
Sat 04:29:00 AM 41.6046 -63.6090 80° East 576 663 39,000  Level FlightAware Transoceanic
Sat 04:30:00 AM 41.6310 -63.3979 81° East 576 663 39,000  Level FlightAware Transoceanic
Sat 04:30:30 AM 41.6333 -63.2833 80° East 566 651 39,000  Level New York Oceanic (ODAPS)
Sat 04:31:00 AM 41.6570 -63.1868 81° East 576 663 39,000  Level FlightAware Transoceanic
Sat 04:32:00 AM 41.6826 -62.9754 81° East 576 663 39,000  Level FlightAware Transoceanic
Sat 04:33:00 AM 41.7078 -62.7639 81° East 576 663 39,000  Level FlightAware Transoceanic
Sat 04:34:00 AM 41.7326 -62.5522 81° East 576 663 39,000  Level FlightAware Transoceanic
Sat 04:35:00 AM 41.7570 -62.3404 81° East 576 663 39,000  Level FlightAware Transoceanic
Sat 04:36:00 AM 41.7818 -62.0565 81° East 566 651 39,000  Level FlightAware Transoceanic
Sat 04:37:00 AM 41.8052 -61.8515 81° East 566 651 39,000  Level FlightAware Transoceanic
Sat 04:38:00 AM 41.8284 -61.6464 81° East 566 651 39,000  Level FlightAware Transoceanic
Sat 04:39:00 AM 41.8511 -61.4411 82° East 566 651 39,000  Level FlightAware Transoceanic
Sat 04:40:00 AM 41.8735 -61.2356 82° East 566 651 39,000  Level FlightAware Transoceanic
Sat 04:41:00 AM 41.8955 -61.0300 82° East 566 651 39,000  Level FlightAware Transoceanic
Sat 04:42:00 AM 41.9171 -60.8243 82° East 566 651 39,000  Level FlightAware Transoceanic
Sat 04:43:00 AM 41.9384 -60.6184 82° East 566 651 39,000  Level FlightAware Transoceanic
Sat 04:44:00 AM 41.9593 -60.4124 82° East 566 651 39,000  Level FlightAware Transoceanic
Sat 04:44:10 AM 41.9667 -60.3833 83° East 583 671 39,000  Level New York Oceanic (ODAPS)
Sat 04:45:00 AM 41.9798 -60.2063 82° East 566 651 39,000  Level FlightAware Transoceanic
Sat 04:46:00 AM 42.0000 -60.0000 79° East 566 651 39,000  Level FlightAware Transoceanic
Sat 04:46:01 AM 42.0000 -60.0000 79° East 593 682 39,000  Level New York Oceanic (ODAPS)
Sat 04:47:00 AM 42.0316 -59.7817 79° East 566 651 39,000  Level FlightAware Transoceanic
Sat 04:48:00 AM 42.0627 -59.5632 79° East 566 651 39,000  Level FlightAware Transoceanic
Sat 04:49:00 AM 42.0935 -59.3444 79° East 566 651 39,000  Level FlightAware Transoceanic
Sat 04:50:00 AM 42.1238 -59.1255 79° East 583 671 39,000  Level FlightAware Transoceanic
Sat 04:51:00 AM 42.1537 -58.9063 80° East 583 671 39,000  Level FlightAware Transoceanic
Sat 04:52:00 AM 42.1832 -58.6870 80° East 593 682 39,000  Level FlightAware Transoceanic
Sat 04:53:00 AM 42.2123 -58.4674 80° East 593 682 39,000  Level FlightAware Transoceanic
Sat 04:54:00 AM 42.2409 -58.2476 80° East 593 682 39,000  Level FlightAware Transoceanic
Sat 04:55:00 AM 42.2691 -58.0277 80° East 593 682 39,000  Level FlightAware Transoceanic
Sat 04:56:00 AM 42.2970 -57.8075 80° East 593 682 39,000  Level FlightAware Transoceanic
Sat 04:57:00 AM 42.3243 -57.5872 81° East 593 682 39,000  Level FlightAware Transoceanic
Sat 04:58:00 AM 42.3513 -57.3666 81° East 593 682 39,000  Level FlightAware Transoceanic
Sat 04:58:12 AM 42.3500 -57.3833 81° East 598 688 39,000  Level New York Oceanic (ODAPS)
Sat 04:59:00 AM 42.3779 -57.1459 81° East 593 682 39,000  Level FlightAware Transoceanic
Sat 05:00:00 AM 42.4040 -56.9250 81° East 593 682 39,000  Level FlightAware Transoceanic
Sat 05:01:00 AM 42.4297 -56.7039 81° East 593 682 39,000  Level FlightAware Transoceanic
Sat 05:02:00 AM 42.4550 -56.4826 81° East 593 682 39,000  Level FlightAware Transoceanic
Sat 05:03:00 AM 42.4798 -56.2611 81° East 593 682 39,000  Level FlightAware Transoceanic
Sat 05:04:00 AM 42.5033 -56.0532 82° East 598 688 39,000  Level FlightAware Transoceanic
Sat 05:05:00 AM 42.5274 -55.8309 82° East 598 688 39,000  Level FlightAware Transoceanic
Sat 05:06:00 AM 42.5510 -55.6085 82° East 598 688 39,000  Level FlightAware Transoceanic
Sat 05:07:00 AM 42.5742 -55.3858 82° East 598 688 39,000  Level FlightAware Transoceanic
Sat 05:08:00 AM 42.5969 -55.1630 82° East 598 688 39,000  Level FlightAware Transoceanic
Sat 05:09:00 AM 42.6193 -54.9401 82° East 598 688 39,000  Level FlightAware Transoceanic
Sat 05:10:00 AM 42.6412 -54.7169 82° East 598 688 39,000  Level FlightAware Transoceanic
Sat 05:11:00 AM 42.6626 -54.4937 83° East 598 688 39,000  Level FlightAware Transoceanic
Sat 05:12:00 AM 42.6836 -54.2702 83° East 598 688 39,000  Level FlightAware Transoceanic
Sat 05:12:08 AM 42.6833 -54.3333 83° East 598 688 39,000  Level New York Oceanic (ODAPS)
Sat 05:13:00 AM 42.7042 -54.0466 83° East 598 688 39,000  Level FlightAware Transoceanic
Sat 05:14:00 AM 42.7244 -53.8229 83° East 598 688 39,000  Level FlightAware Transoceanic
Sat 05:15:00 AM 42.7441 -53.5990 83° East 598 688 39,000  Level FlightAware Transoceanic
Sat 05:16:00 AM 42.7634 -53.3750 83° East 598 688 39,000  Level FlightAware Transoceanic
Sat 05:17:00 AM 42.7823 -53.1509 84° East 598 688 39,000  Level FlightAware Transoceanic
Sat 05:18:00 AM 42.8010 -52.9699 84° East 598 688 39,000  Level FlightAware Transoceanic
Sat 05:19:00 AM 42.8190 -52.7421 84° East 598 688 39,000  Level FlightAware Transoceanic
Sat 05:20:00 AM 42.8366 -52.5143 84° East 598 688 39,000  Level FlightAware Transoceanic
Sat 05:21:00 AM 42.8537 -52.2863 84° East 598 688 39,000  Level FlightAware Transoceanic
Sat 05:22:00 AM 42.8704 -52.0582 84° East 598 688 39,000  Level FlightAware Transoceanic
Sat 05:23:00 AM 42.8866 -51.8299 85° East 598 688 39,000  Level FlightAware Transoceanic
Sat 05:24:00 AM 42.9024 -51.6016 85° East 598 688 39,000  Level FlightAware Transoceanic
Sat 05:25:00 AM 42.9177 -51.3731 85° East 598 688 39,000  Level FlightAware Transoceanic
Sat 05:26:00 AM 42.9325 -51.1445 85° East 598 688 39,000  Level FlightAware Transoceanic
Sat 05:26:16 AM 42.9333 -51.2333 85° East 600 690 39,000  Level New York Oceanic (ODAPS)
Sat 05:27:00 AM 42.9469 -50.9158 85° East 598 688 39,000  Level FlightAware Transoceanic
Sat 05:28:00 AM 42.9609 -50.6870 85° East 598 688 39,000  Level FlightAware Transoceanic
Sat 05:29:00 AM 42.9744 -50.4581 85° East 598 688 39,000  Level FlightAware Transoceanic
Sat 05:30:00 AM 42.9874 -50.2291 86° East 598 688 39,000  Level FlightAware Transoceanic
Sat 05:31:00 AM 43.0000 -50.0000 64° Northeast 598 688 39,000  Level FlightAware Transoceanic
Sat 05:32:00 AM 43.0726 -49.7981 64° Northeast 600 690 39,000  Level FlightAware Transoceanic
Sat 05:33:00 AM 43.1449 -49.5957 64° Northeast 600 690 39,000  Level FlightAware Transoceanic
Sat 05:34:00 AM 43.2168 -49.3928 64° Northeast 600 690 39,000  Level FlightAware Transoceanic
Sat 05:35:00 AM 43.2883 -49.1895 64° Northeast 600 690 39,000  Level FlightAware Transoceanic
Sat 05:36:00 AM 43.3595 -48.9856 64° Northeast 600 690 39,000  Level FlightAware Transoceanic
Sat 05:37:00 AM 43.4303 -48.7813 65° Northeast 600 690 39,000  Level FlightAware Transoceanic
Sat 05:38:00 AM 43.5008 -48.5765 65° Northeast 600 690 39,000  Level FlightAware Transoceanic
Sat 05:39:00 AM 43.5709 -48.3713 65° Northeast 600 690 39,000  Level FlightAware Transoceanic
Sat 05:39:50 AM 43.6000 -48.3167 65° Northeast 588 677 39,000  Level New York Oceanic (ODAPS)
Sat 05:40:00 AM 43.6406 -48.1656 65° Northeast 600 690 39,000  Level FlightAware Transoceanic
Sat 05:41:00 AM 43.7100 -47.9593 65° Northeast 600 690 39,000  Level FlightAware Transoceanic
Sat 05:42:00 AM 43.7789 -47.7527 65° Northeast 600 690 39,000  Level FlightAware Transoceanic
Sat 05:43:00 AM 43.8475 -47.5455 65° Northeast 600 690 39,000  Level FlightAware Transoceanic
Sat 05:44:00 AM 43.9158 -47.3378 66° East 600 690 39,000  Level FlightAware Transoceanic
Sat 05:45:00 AM 43.9836 -47.1297 66° East 600 690 39,000  Level FlightAware Transoceanic
Sat 05:46:00 AM 44.0078 -47.0827 66° East 588 677 39,000  Level FlightAware Transoceanic
Sat 05:47:00 AM 44.0744 -46.8754 66° East 588 677 39,000  Level FlightAware Transoceanic
Sat 05:48:00 AM 44.1407 -46.6676 66° East 588 677 39,000  Level FlightAware Transoceanic
Sat 05:49:00 AM 44.2066 -46.4594 66° East 588 677 39,000  Level FlightAware Transoceanic
Sat 05:50:00 AM 44.2722 -46.2507 66° East 588 677 39,000  Level FlightAware Transoceanic
Sat 05:51:00 AM 44.3373 -46.0415 67° East 588 677 39,000  Level FlightAware Transoceanic
Sat 05:52:00 AM 44.4021 -45.8319 67° East 588 677 39,000  Level FlightAware Transoceanic
Sat 05:53:00 AM 44.4665 -45.6218 67° East 588 677 39,000  Level FlightAware Transoceanic
Sat 05:54:00 AM 44.5305 -45.4113 67° East 588 677 39,000  Level FlightAware Transoceanic
Sat 05:55:00 AM 44.5941 -45.2002 67° East 588 677 39,000  Level FlightAware Transoceanic
Sat 05:56:00 AM 44.6573 -44.9888 67° East 588 677 39,000  Level FlightAware Transoceanic
Sat 05:57:00 AM 44.7201 -44.7768 67° East 588 677 39,000  Level FlightAware Transoceanic
Sat 05:58:00 AM 44.7826 -44.5644 68° East 588 677 39,000  Level FlightAware Transoceanic
Sat 05:59:00 AM 44.8446 -44.3516 68° East 588 677 39,000  Level FlightAware Transoceanic
Sat 06:00:00 AM 44.9063 -44.1383 68° East 588 677 39,000  Level FlightAware Transoceanic
Sat 06:01:00 AM 44.9675 -43.9245 68° East 588 677 39,000  Level FlightAware Transoceanic
Sat 06:02:00 AM 45.0284 -43.7103 68° East 588 677 39,000  Level FlightAware Transoceanic
Sat 06:03:00 AM 45.0888 -43.4956 68° East 588 677 39,000  Level FlightAware Transoceanic
Sat 06:04:00 AM 45.1488 -43.2805 68° East 588 677 39,000  Level FlightAware Transoceanic
Sat 06:05:00 AM 45.2085 -43.0649 69° East 588 677 39,000  Level FlightAware Transoceanic
Sat 06:06:00 AM 45.2677 -42.8489 69° East 588 677 39,000  Level FlightAware Transoceanic
Sat 06:07:00 AM 45.3265 -42.6324 69° East 588 677 39,000  Level FlightAware Transoceanic
Sat 06:08:00 AM 45.3850 -42.4155 69° East 588 677 39,000  Level FlightAware Transoceanic
Sat 06:09:00 AM 45.4430 -42.1981 69° East 588 677 39,000  Level FlightAware Transoceanic
Sat 06:10:00 AM 45.5005 -41.9802 69° East 588 677 39,000  Level FlightAware Transoceanic
Sat 06:11:00 AM 45.5577 -41.7620 70° East 588 677 39,000  Level FlightAware Transoceanic
Sat 06:12:00 AM 45.6145 -41.5433 70° East 588 677 39,000  Level FlightAware Transoceanic
Sat 06:13:00 AM 45.6708 -41.3241 70° East 588 677 39,000  Level FlightAware Transoceanic
Sat 06:14:00 AM 45.7267 -41.1045 70° East 588 677 39,000  Level FlightAware Transoceanic
Sat 06:15:00 AM 45.7822 -40.8845 70° East 588 677 39,000  Level FlightAware Transoceanic
Sat 06:16:00 AM 45.8373 -40.6640 70° East 588 677 39,000  Level FlightAware Transoceanic
Sat 06:17:00 AM 45.8920 -40.4431 71° East 588 677 39,000  Level FlightAware Transoceanic
Sat 06:18:00 AM 45.9462 -40.2218 71° East 588 677 39,000  Level FlightAware Transoceanic
Sat 06:19:00 AM 46.0000 -40.0000 70° East 588 677 39,000  Level FlightAware Transoceanic
Sat 06:20:00 AM 46.0549 -39.7814 70° East 588 677 39,000  Level FlightAware Transoceanic
Sat 06:21:00 AM 46.1094 -39.5624 70° East 588 677 39,000  Level FlightAware Transoceanic
Sat 06:22:00 AM 46.1634 -39.3429 71° East 588 677 39,000  Level FlightAware Transoceanic
Sat 06:23:00 AM 46.2171 -39.1231 71° East 588 677 39,000  Level FlightAware Transoceanic
Sat 06:24:00 AM 46.2703 -38.9027 71° East 588 677 39,000  Level FlightAware Transoceanic
Sat 06:25:00 AM 46.3231 -38.6820 71° East 588 677 39,000  Level FlightAware Transoceanic
Sat 06:26:00 AM 46.3755 -38.4608 71° East 588 677 39,000  Level FlightAware Transoceanic
Sat 06:27:00 AM 46.4274 -38.2393 71° East 588 677 39,000  Level FlightAware Transoceanic
Sat 06:28:00 AM 46.4789 -38.0173 71° East 588 677 39,000  Level FlightAware Transoceanic
Sat 06:29:00 AM 46.5300 -37.7948 72° East 588 677 39,000  Level FlightAware Transoceanic
Sat 06:30:00 AM 46.5807 -37.5720 72° East 588 677 39,000  Level FlightAware Transoceanic
Sat 06:31:00 AM 46.6309 -37.3487 72° East 588 677 39,000  Level FlightAware Transoceanic
Sat 06:32:00 AM 46.6807 -37.1251 72° East 588 677 39,000  Level FlightAware Transoceanic
Sat 06:33:00 AM 46.7300 -36.9010 72° East 588 677 39,000  Level FlightAware Transoceanic
Sat 06:34:00 AM 46.7789 -36.6765 72° East 588 677 39,000  Level FlightAware Transoceanic
Sat 06:35:00 AM 46.8274 -36.4516 73° East 588 677 39,000  Level FlightAware Transoceanic
Sat 06:36:00 AM 46.8754 -36.2263 73° East 588 677 39,000  Level FlightAware Transoceanic
Sat 06:37:00 AM 46.9230 -36.0006 73° East 588 677 39,000  Level FlightAware Transoceanic
Sat 06:38:00 AM 46.9702 -35.7745 73° East 588 677 39,000  Level FlightAware Transoceanic
Sat 06:39:00 AM 47.0169 -35.5480 73° East 588 677 39,000  Level FlightAware Transoceanic
Sat 06:40:00 AM 47.0631 -35.3211 73° East 588 677 39,000  Level FlightAware Transoceanic
Sat 06:41:00 AM 47.1089 -35.0938 74° East 588 677 39,000  Level FlightAware Transoceanic
Sat 06:42:00 AM 47.1543 -34.8662 74° East 588 677 39,000  Level FlightAware Transoceanic
Sat 06:43:00 AM 47.1992 -34.6381 74° East 588 677 39,000  Level FlightAware Transoceanic
Sat 06:44:00 AM 47.2436 -34.4096 74° East 588 677 39,000  Level FlightAware Transoceanic
Sat 06:45:00 AM 47.2876 -34.1808 74° East 588 677 39,000  Level FlightAware Transoceanic
Sat 06:46:00 AM 47.3311 -33.9516 74° East 588 677 39,000  Level FlightAware Transoceanic
Sat 06:47:00 AM 47.3742 -33.7220 75° East 588 677 39,000  Level FlightAware Transoceanic
Sat 06:48:00 AM 47.4168 -33.4921 75° East 588 677 39,000  Level FlightAware Transoceanic
Sat 06:49:00 AM 47.4590 -33.2618 75° East 588 677 39,000  Level FlightAware Transoceanic
Sat 06:50:00 AM 47.5006 -33.0311 75° East 588 677 39,000  Level FlightAware Transoceanic
Sat 06:51:00 AM 47.5419 -32.8000 75° East 588 677 39,000  Level FlightAware Transoceanic
Sat 06:52:00 AM 47.5826 -32.5686 75° East 588 677 39,000  Level FlightAware Transoceanic
Sat 06:53:00 AM 47.6230 -32.3368 76° East 588 677 39,000  Level FlightAware Transoceanic
Sat 06:54:00 AM 47.6628 -32.1047 76° East 588 677 39,000  Level FlightAware Transoceanic
Sat 06:55:00 AM 47.7021 -31.8722 76° East 588 677 39,000  Level FlightAware Transoceanic
Sat 06:56:00 AM 47.7410 -31.6394 76° East 588 677 39,000  Level FlightAware Transoceanic
Sat 06:57:00 AM 47.7794 -31.4062 76° East 588 677 39,000  Level FlightAware Transoceanic
Sat 06:58:00 AM 47.8174 -31.1726 76° East 588 677 39,000  Level FlightAware Transoceanic
Sat 06:59:00 AM 47.8549 -30.9388 77° East 588 677 39,000  Level FlightAware Transoceanic
Sat 07:00:00 AM 47.8919 -30.7046 77° East 588 677 39,000  Level FlightAware Transoceanic
Sat 07:01:00 AM 47.9284 -30.4701 77° East 588 677 39,000  Level FlightAware Transoceanic
Sat 07:02:00 AM 47.9644 -30.2352 77° East 588 677 39,000  Level FlightAware Transoceanic
Sat 07:03:00 AM 47.9979 -30.0140 77° East  Level FlightAware Approximate
Sat 07:04:00 AM 48.0309 -29.7925 77° East  Level FlightAware Approximate
Sat 07:05:00 AM 48.0281 -29.8064 78° East  Level FlightAware Approximate
Sat 07:06:00 AM 48.0599 -29.5844 78° East  Level FlightAware Approximate
Sat 07:07:00 AM 48.0912 -29.3621 78° East  Level FlightAware Approximate
Sat 07:08:00 AM 48.1221 -29.1395 78° East  Level FlightAware Approximate
Sat 07:09:00 AM 48.1526 -28.9167 78° East  Level FlightAware Approximate
Sat 07:10:00 AM 48.1827 -28.6937 78° East  Level FlightAware Approximate
Sat 07:11:00 AM 48.2123 -28.4703 79° East  Level FlightAware Approximate
Sat 07:12:00 AM 48.2415 -28.2468 79° East  Level FlightAware Approximate
Sat 07:13:00 AM 48.2702 -28.0229 79° East  Level FlightAware Approximate
Sat 07:14:00 AM 48.2985 -27.7988 79° East  Level FlightAware Approximate
Sat 07:15:00 AM 48.3264 -27.5745 79° East  Level FlightAware Approximate
Sat 07:16:00 AM 48.3539 -27.3499 79° East  Level FlightAware Approximate
Sat 07:17:00 AM 48.3809 -27.1251 80° East  Level FlightAware Approximate
Sat 07:18:00 AM 48.4075 -26.9000 80° East  Level FlightAware Approximate
Sat 07:19:00 AM 48.4336 -26.6748 80° East  Level FlightAware Approximate
Sat 07:20:00 AM 48.4593 -26.4492 80° East  Level FlightAware Approximate
Sat 07:21:00 AM 48.4845 -26.2235 80° East  Level FlightAware Approximate
Sat 07:22:00 AM 48.5093 -25.9975 81° East  Level FlightAware Approximate
Sat 07:23:00 AM 48.5337 -25.7713 81° East  Level FlightAware Approximate
Sat 07:24:00 AM 48.5576 -25.5449 81° East  Level FlightAware Approximate
Sat 07:25:00 AM 48.5811 -25.3183 81° East  Level FlightAware Approximate
Sat 07:26:00 AM 48.6041 -25.0915 81° East  Level FlightAware Approximate
Sat 07:27:00 AM 48.6267 -24.8645 81° East  Level FlightAware Approximate
Sat 07:28:00 AM 48.6489 -24.6373 82° East  Level FlightAware Approximate
Sat 07:29:00 AM 48.6706 -24.4098 82° East  Level FlightAware Approximate
Sat 07:30:00 AM 48.6918 -24.1822 82° East  Level FlightAware Approximate
Sat 07:31:00 AM 48.7126 -23.9544 82° East  Level FlightAware Approximate
Sat 07:32:00 AM 48.7329 -23.7264 82° East  Level FlightAware Approximate
Sat 07:33:00 AM 48.7528 -23.4982 82° East  Level FlightAware Approximate
Sat 07:34:00 AM 48.7723 -23.2698 83° East  Level FlightAware Approximate
Sat 07:35:00 AM 48.7913 -23.0413 83° East  Level FlightAware Approximate
Sat 07:36:00 AM 48.8098 -22.8126 83° East  Level FlightAware Approximate
Sat 07:37:00 AM 48.8279 -22.5837 83° East  Level FlightAware Approximate
Sat 07:38:00 AM 48.8456 -22.3547 83° East  Level FlightAware Approximate
Sat 07:39:00 AM 48.8628 -22.1255 83° East  Level FlightAware Approximate
Sat 07:40:00 AM 48.8795 -21.8962 84° East  Level FlightAware Approximate
Sat 07:41:00 AM 48.8957 -21.6667 84° East  Level FlightAware Approximate
Sat 07:42:00 AM 48.9116 -21.4370 84° East  Level FlightAware Approximate
Sat 07:43:00 AM 48.9269 -21.2072 84° East  Level FlightAware Approximate
Sat 07:44:00 AM 48.9418 -20.9773 84° East  Level FlightAware Approximate
Sat 07:45:00 AM 48.9563 -20.7472 84° East  Level FlightAware Approximate
Sat 07:46:00 AM 48.9703 -20.5170 85° East  Level FlightAware Approximate
Sat 07:47:00 AM 48.9838 -20.2867 85° East  Level FlightAware Approximate
Sat 07:48:00 AM 48.9969 -20.0563 85° East  Level FlightAware Approximate
Sat 07:49:00 AM 49.0320 -19.8320 74° East  Level FlightAware Approximate
Sat 07:50:00 AM 49.0740 -19.6094 74° East  Level FlightAware Approximate
Sat 07:51:00 AM 49.1155 -19.3865 74° East  Level FlightAware Approximate
Sat 07:52:00 AM 49.1566 -19.1632 74° East  Level FlightAware Approximate
Sat 07:53:00 AM 49.1973 -18.9395 74° East  Level FlightAware Approximate
Sat 07:54:00 AM 49.2375 -18.7154 75° East  Level FlightAware Approximate
Sat 07:55:00 AM 49.2773 -18.4910 75° East  Level FlightAware Approximate
Sat 07:56:00 AM 49.3167 -18.2662 75° East  Level FlightAware Approximate
Sat 07:57:00 AM 49.3556 -18.0411 75° East  Level FlightAware Approximate
Sat 07:58:00 AM 49.3941 -17.8156 75° East  Level FlightAware Approximate
Sat 07:59:00 AM 49.4322 -17.5898 75° East  Level FlightAware Approximate
Sat 08:00:00 AM 49.4698 -17.3636 76° East  Level FlightAware Approximate
Sat 08:01:00 AM 49.5070 -17.1371 76° East  Level FlightAware Approximate
Sat 08:02:00 AM 49.5437 -16.9102 76° East  Level FlightAware Approximate
Sat 08:03:00 AM 49.5800 -16.6829 76° East  Level FlightAware Approximate
Sat 08:04:00 AM 49.6158 -16.4554 76° East  Level FlightAware Approximate
Sat 08:05:00 AM 49.6512 -16.2275 76° East  Level FlightAware Approximate
Sat 08:06:00 AM 49.6862 -15.9993 77° East  Level FlightAware Approximate
Sat 08:07:00 AM 49.7207 -15.7708 77° East  Level FlightAware Approximate
Sat 08:08:00 AM 49.7547 -15.5419 77° East  Level FlightAware Approximate
Sat 08:09:00 AM 49.7883 -15.3127 77° East  Level FlightAware Approximate
Sat 08:10:00 AM 49.8214 -15.0832 77° East  Level FlightAware Approximate
Sat 08:11:00 AM 49.8541 -14.8534 78° East  Level FlightAware Approximate
Sat 08:12:00 AM 49.8863 -14.6233 78° East  Level FlightAware Approximate
Sat 08:13:00 AM 49.9180 -14.3928 78° East  Level FlightAware Approximate
Sat 08:14:00 AM 49.9493 -14.1621 78° East  Level FlightAware Approximate
Sat 08:15:00 AM 49.9801 -13.9311 78° East  Level FlightAware Approximate
Sat 08:16:00 AM 50.0105 -13.6997 78° East  Level FlightAware Approximate
Sat 08:17:00 AM 50.0404 -13.4681 79° East  Level FlightAware Approximate
Sat 08:18:00 AM 50.0698 -13.2362 79° East  Level FlightAware Approximate
Sat 08:19:00 AM 50.0988 -13.0040 79° East  Level FlightAware Approximate
Sat 08:20:00 AM 50.1273 -12.7715 79° East  Level FlightAware Approximate
Sat 08:21:00 AM 50.1553 -12.5388 79° East  Level FlightAware Approximate
Sat 08:22:00 AM 50.1829 -12.3057 79° East  Level FlightAware Approximate
Sat 08:23:00 AM 50.2100 -12.0725 80° East  Level FlightAware Approximate
Sat 08:24:00 AM 50.2366 -11.8389 80° East  Level FlightAware Approximate
Sat 08:25:00 AM 50.2628 -11.6051 80° East  Level FlightAware Approximate
Sat 08:26:00 AM 50.2885 -11.3710 80° East  Level FlightAware Approximate
Sat 08:27:00 AM 50.3137 -11.1367 80° East  Level FlightAware Approximate
Sat 08:27:32 AM 49.8060 -10.2720 80° East 536 617 39,000  Level FlightAware ADS-B
Sat 08:28:17 AM 49.8340 -10.1070 75° East 537 618 39,000  Level FlightAware ADS-B
Sat 08:28:57 AM 49.8580 -9.9600 76° East 538 619 39,000  Level FlightAware ADS-B
Sat 08:29:42 AM 49.8870 -9.7890 75° East 537 618 39,000  Level FlightAware ADS-B
Sat 08:30:22 AM 49.9120 -9.6390 75° East 538 619 39,000  Level FlightAware ADS-B
Sat 08:31:02 AM 49.9350 -9.4960 76° East 539 620 39,000  Level FlightAware ADS-B
Sat 08:31:42 AM 49.9600 -9.3470 75° East 540 621 39,000  Level FlightAware ADS-B
Sat 08:32:27 AM 49.9880 -9.1740 76° East 538 619 39,000  Level FlightAware ADS-B
Sat 08:33:22 AM 50.0210 -8.9650 76° East 535 616 39,000  Level FlightAware ADS-B
Sat 08:34:02 AM 50.0420 -8.8290 76° East 532 612 39,000  Level FlightAware ADS-B
Sat 08:34:47 AM 50.0700 -8.6500 76° East 531 611 39,000  Level FlightAware ADS-B
Sat 08:35:27 AM 50.0930 -8.5030 76° East 531 611 39,000  Level FlightAware ADS-B
Sat 08:36:07 AM 50.1160 -8.3530 76° East 531 611 39,000  Level FlightAware ADS-B
Sat 08:36:52 AM 50.1410 -8.1860 77° East 530 610 39,000  Level FlightAware ADS-B
Sat 08:37:32 AM 50.1640 -8.0370 76° East 528 608 39,000  Level FlightAware ADS-B
Sat 08:38:17 AM 50.1880 -7.8760 77° East 526 605 39,000  Level FlightAware ADS-B
Sat 08:38:57 AM 50.2100 -7.7240 77° East 524 603 39,000  Level FlightAware ADS-B
Sat 08:39:37 AM 50.2300 -7.5830 77° East 520 598 39,000  Level FlightAware ADS-B
Sat 08:40:22 AM 50.2550 -7.4130 77° East 518 596 39,000  Level FlightAware ADS-B
Sat 08:41:02 AM 50.2750 -7.2700 78° East 516 594 39,000  Level FlightAware ADS-B
Sat 08:41:42 AM 50.2950 -7.1320 77° East 516 594 39,000  Level FlightAware ADS-B
Sat 08:42:32 AM 50.3210 -6.9460 78° East 514 592 39,000  Level FlightAware ADS-B
Sat 08:43:12 AM 50.3410 -6.8030 78° East 514 592 39,000  Level FlightAware ADS-B
Sat 08:43:57 AM 50.3640 -6.6360 78° East 516 594 39,000  Level FlightAware ADS-B
Sat 08:44:27 AM 50.3790 -6.5270 78° East 517 595 39,000  Level FlightAware ADS-B
Sat 08:45:32 AM 50.4110 -6.2860 78° East 517 595 39,000  Level FlightAware ADS-B
Sat 08:46:17 AM 50.4320 -6.1220 79° East 517 595 39,000  Level FlightAware ADS-B
Sat 08:46:57 AM 50.4510 -5.9780 78° East 518 596 39,000  Level FlightAware ADS-B
Sat 08:47:37 AM 50.4690 -5.8380 79° East 520 598 39,000  Level FlightAware ADS-B
Sat 08:48:22 AM 50.4910 -5.6720 78° East 522 601 39,000  Level FlightAware ADS-B
Sat 08:49:02 AM 50.5100 -5.5180 79° East 520 598 39,000  Level FlightAware ADS-B
Sat 08:49:42 AM 50.5290 -5.3690 79° East 520 598 39,000  Level FlightAware ADS-B
Sat 08:50:27 AM 50.5500 -5.1980 79° East 519 597 39,000  Level FlightAware ADS-B
Sat 08:51:07 AM 50.5680 -5.0510 79° East 518 596 39,000  Level FlightAware ADS-B
Sat 08:51:47 AM 50.5850 -4.9080 79° East 516 594 39,000  Level FlightAware ADS-B
Sat 08:52:32 AM 50.6040 -4.7460 79° East 514 592 39,000  Level FlightAware ADS-B
Sat 08:53:17 AM 50.6238 -4.5806 79° East 513 590 39,000  Level FlightAware ADS-B
Sat 08:53:54 AM 50.6409 -4.4339 80° East 510 587 39,000  Level FlightAware ADS-B
Sat 08:54:25 AM 50.6533 -4.3268 80° East 507 583 39,000  Level FlightAware ADS-B
Sat 08:55:03 AM 50.6673 -4.2035 80° East 505 581 39,000  Level FlightAware ADS-B
Sat 08:55:56 AM 50.6826 -4.0689 80° East 501 577 39,000  Level FlightAware ADS-B
Sat 08:56:20 AM 50.6921 -3.9839 80° East 497 572 39,000  Level FlightAware ADS-B
Sat 08:56:52 AM 50.7078 -3.8430 80° East 497 572 39,000  Level FlightAware ADS-B
Sat 08:57:22 AM 50.7240 -3.6910 80° East 497 572 39,000  Level FlightAware ADS-B
Sat 08:57:34 AM 50.7259 -3.6778 77° East 497 572 39,000  Level FlightAware ADS-B
Sat 08:58:06 AM 50.7395 -3.5529 80° East 497 572 39,000  Level FlightAware ADS-B
Sat 08:58:38 AM 50.7523 -3.4334 80° East 498 573 39,000  Level FlightAware ADS-B
Sat 08:59:08 AM 50.7628 -3.3340 80° East 498 573 39,000  Level FlightAware ADS-B
Sat 08:59:42 AM 50.7757 -3.2107 81° East 500 575 39,000  Level FlightAware ADS-B
Sat 09:00:15 AM 50.7902 -3.0717 81° East 502 578 39,000  Level FlightAware ADS-B
Sat 09:00:47 AM 50.8024 -2.9533 81° East 500 575 39,000  Level FlightAware ADS-B
Sat 09:01:22 AM 50.8121 -2.8581 81° East 499 574 39,000  Level FlightAware ADS-B
Sat 09:01:53 AM 50.8221 -2.7589 81° East 497 572 39,000  Level FlightAware ADS-B
Sat 09:02:25 AM 50.8347 -2.6330 81° East 494 568 39,000  Level FlightAware ADS-B
Sat 09:02:56 AM 50.8457 -2.5208 81° East 493 567 39,000  Level FlightAware ADS-B
Sat 09:03:26 AM 50.8590 -2.3866 81° East 491 565 39,000  Level FlightAware ADS-B
Sat 09:03:59 AM 50.8683 -2.2898 81° East 489 563 39,000  Level FlightAware ADS-B
Sat 09:04:14 AM 50.8737 -2.2330 81° East 489 563 39,000  Level FlightAware ADS-B
Sat 09:04:45 AM 50.8851 -2.1141 81° East 488 562 39,000  Level FlightAware ADS-B
Sat 09:05:17 AM 50.8944 -2.0155 81° East 487 560 39,000  Level FlightAware ADS-B
Sat 09:05:37 AM 50.8993 -1.9631 82° East 487 560 39,000  Level FlightAware ADS-B
Sat 09:06:07 AM 50.9110 -1.8378 82° East 486 559 39,000  Level FlightAware ADS-B
Sat 09:06:37 AM 50.9209 -1.7304 82° East 486 559 39,000  Level FlightAware ADS-B
Sat 09:07:08 AM 50.9286 -1.6448 82° East 485 558 39,000  Level FlightAware ADS-B
Sat 09:07:39 AM 50.9415 -1.5002 82° East 485 558 39,000  Level FlightAware ADS-B
Sat 09:08:09 AM 50.9511 -1.3934 82° East 486 559 39,000  Level FlightAware ADS-B
Sat 09:08:38 AM 50.9591 -1.3034 82° East 487 560 39,000  Level FlightAware ADS-B
Sat 09:08:47 AM 50.9619 -1.2720 82° East 488 562 39,000  Level FlightAware ADS-B
Sat 09:09:18 AM 50.9727 -1.1481 82° East 490 564 39,000  Level FlightAware ADS-B
Sat 09:09:48 AM 50.9820 -1.0407 82° East 491 565 39,000  Level FlightAware ADS-B
Sat 09:10:20 AM 50.9908 -0.9372 82° East 494 568 39,000  Level FlightAware ADS-B
Sat 09:10:45 AM 50.9971 -0.8631 82° East 494 568 39,000  Level FlightAware ADS-B
Sat 09:10:56 AM 51.0001 -0.8276 82° East 495 570 39,000  Level FlightAware ADS-B
Sat 09:11:26 AM 51.0092 -0.7191 82° East 498 573 39,000  Level FlightAware ADS-B
Sat 09:11:57 AM 51.0179 -0.6133 83° East 500 575 39,000  Level FlightAware ADS-B
Sat 09:12:28 AM 51.0281 -0.4884 83° East 500 575 39,000  Level FlightAware ADS-B
Sat 09:13:01 AM 51.0386 -0.3574 83° East 499 574 39,000  Level FlightAware ADS-B
Sat 09:13:32 AM 51.0483 -0.2358 83° East 498 573 39,000  Level FlightAware ADS-B
Sat 09:14:02 AM 51.0557 -0.1404 83° East 497 572 39,000  Level FlightAware ADS-B
Sat 09:14:32 AM 51.0637 -0.0378 83° East 497 572 39,000  Level FlightAware ADS-B
Sat 09:14:42 AM 51.0669 0.0026 83° East 496 571 39,000  Level FlightAware ADS-B
Sat 09:15:12 AM 51.0760 0.1224 83° East 495 570 39,000  Level FlightAware ADS-B
Sat 09:15:42 AM 51.0832 0.2180 83° East 495 570 39,000  Level FlightAware ADS-B
Sat 09:16:17 AM 51.0916 0.3306 83° East 494 568 39,000  Level FlightAware ADS-B
Sat 09:16:50 AM 51.1011 0.4610 83° East 495 570 39,000  Level FlightAware ADS-B
Sat 09:17:20 AM 51.1103 0.5880 83° East 495 570 39,000  Level FlightAware ADS-B
Sat 09:17:50 AM 51.1173 0.6872 84° East 496 571 39,000  Level FlightAware ADS-B
Sat 09:17:59 AM 51.1183 0.7194 87° East 501 577 39,000  Level FlightAware ADS-B
Sat 09:18:13 AM 51.1168 0.7561 94° East 509 586 39,000  Level FlightAware ADS-B
Sat 09:18:20 AM 51.1145 0.7820 98° East 512 589 39,000  Level FlightAware ADS-B
Sat 09:18:36 AM 51.1084 0.8409 99° East 512 589 39,000  Level FlightAware ADS-B
Sat 09:19:06 AM 51.0951 0.9723 99° East 511 588 39,000  Level FlightAware ADS-B
Sat 09:19:36 AM 51.0862 1.0758 98° East 508 585 39,000  Level FlightAware ADS-B
Sat 09:19:51 AM 51.0813 1.1379 97° East 507 583 39,000  Level FlightAware ADS-B
Sat 09:20:21 AM 51.0742 1.2325 97° East 505 581 39,000  Level FlightAware ADS-B
Sat 09:20:52 AM 51.0673 1.3272 97° East 504 580 39,000  Level FlightAware ADS-B
Sat 09:21:10 AM 51.0617 1.3996 97° East 506 582 39,000  Level FlightAware ADS-B
Sat 09:21:57 AM 51.0420 1.5930 99° East 510 587 39,000  Level FlightAware ADS-B
Sat 09:22:32 AM 51.0250 1.7260 101° East 514 592 39,000  Level FlightAware ADS-B
Sat 09:22:56 AM 51.0122 1.8174 103° East 516 594 39,000  Level FlightAware ADS-B
Sat 09:23:32 AM 50.9924 1.9560 103° East 519 597 39,000  Level FlightAware ADS-B
Sat 09:23:56 AM 50.9820 2.0274 103° East 520 598 39,000  Level FlightAware ADS-B
Sat 09:24:30 AM 50.9640 2.1495 103° East 522 601 39,000  Level FlightAware ADS-B
Sat 09:25:01 AM 50.9457 2.2733 103° East 523 602 39,000  Level FlightAware ADS-B
Sat 09:25:53 AM 50.9170 2.4674 103° East 524 603 39,000  Level FlightAware ADS-B
Sat 09:26:47 AM 50.8870 2.6680 103° East 531 611 39,000  Level FlightAware ADS-B
Sat 09:27:27 AM 50.8630 2.8290 103° East 533 613 39,000  Level FlightAware ADS-B
Sat 09:28:12 AM 50.8370 3.0000 103° East 534 615 39,000 -353 Level FlightAware ADS-B
Sat 09:28:52 AM 50.8140 3.1510 103° East 531 611 38,500 -1,271 Descending FlightAware ADS-B
Sat 09:29:37 AM 50.7900 3.3050 104° East 524 603 37,200 -1,800 Descending FlightAware ADS-B
Sat 09:30:22 AM 50.7630 3.4780 104° East 511 588 35,800 -1,976 Descending FlightAware ADS-B
Sat 09:31:02 AM 50.7400 3.6210 104° East 504 580 34,400 -2,925 Descending FlightAware ADS-B
Sat 09:31:42 AM 50.7170 3.7690 104° East 522 601 31,900 -3,176 Descending FlightAware ADS-B
Sat 09:32:27 AM 50.6900 3.9360 104° East 525 604 29,900 -2,188 Descending FlightAware ADS-B
Sat 09:33:07 AM 50.6670 4.0790 104° East 515 593 28,800 -1,575 Descending FlightAware ADS-B
Sat 09:33:47 AM 50.6440 4.2180 105° East 503 579 27,800 -1,624 Descending FlightAware ADS-B
Sat 09:34:32 AM 50.6180 4.3740 105° East 494 568 26,500 -1,765 Descending FlightAware ADS-B
Sat 09:35:12 AM 50.5930 4.5270 104° East 483 556 25,300 -1,650 Descending FlightAware ADS-B
Sat 09:35:52 AM 50.5710 4.6570 105° East 474 545 24,300 -1,694 Descending FlightAware ADS-B
Sat 09:36:37 AM 50.5460 4.8040 105° East 471 542 22,900 -1,694 Descending FlightAware ADS-B
Sat 09:37:17 AM 50.5250 4.9310 105° East 464 534 21,900 -1,500 Descending FlightAware ADS-B
Sat 09:37:57 AM 50.5030 5.0580 105° East 453 521 20,900 -1,553 Descending FlightAware ADS-B
Sat 09:38:42 AM 50.4770 5.2070 105° East 434 499 19,700 -1,624 Descending FlightAware ADS-B
Sat 09:39:22 AM 50.4560 5.3240 106° East 425 489 18,600 -1,765 Descending FlightAware ADS-B
Sat 09:40:07 AM 50.4360 5.4570 103° East 416 479 17,200 -1,933 Descending FlightAware ADS-B
Sat 09:40:52 AM 50.4190 5.5910 101° East 408 470 15,700 -1,906 Descending FlightAware ADS-B
Sat 09:41:32 AM 50.4050 5.7060 101° East 401 461 14,500 -1,950 Descending FlightAware ADS-B
Sat 09:42:12 AM 50.3910 5.8180 101° East 398 458 13,100 -2,047 Descending FlightAware ADS-B
Sat 09:42:57 AM 50.3750 5.9380 102° East 398 458 11,600 -1,765 Descending FlightAware ADS-B
Sat 09:43:37 AM 50.3600 6.0520 102° East 384 442 10,600 -1,129 Descending FlightAware ADS-B
Sat 09:44:22 AM 50.3450 6.1680 101° East 357 411 10,000 -424 Descending FlightAware ADS-B
Sat 09:45:02 AM 50.3310 6.2690 102° East 346 398 10,000  Level FlightAware ADS-B
Sat 09:45:47 AM 50.3160 6.3770 102° East 340 391 10,000  Level FlightAware ADS-B
Sat 09:46:27 AM 50.3030 6.4750 102° East 345 397 10,000  Level FlightAware ADS-B
Sat 09:46:57 AM 50.2940 6.5420 102° East 333 383 10,000  Level FlightAware ADS-B
Sat 09:47:22 AM 50.2860 6.6020 102° East 319 367 10,000 -327 Level FlightAware ADS-B
Sat 09:47:52 AM 50.2770 6.6660 102° East 300 345 9,700 -840 Descending FlightAware ADS-B
Sat 09:48:12 AM 50.2710 6.7090 102° East 299 344 9,300 -1,200 Descending FlightAware ADS-B
Sat 09:48:27 AM 50.2670 6.7390 102° East 301 346 9,000 -1,333 Descending FlightAware ADS-B
Sat 09:48:57 AM 50.2810 6.6370 282° West 303 349 8,300 -764 Descending FlightAware ADS-B
Sat 09:49:22 AM 50.2750 6.6830 102° East 303 349 8,300 -1,080 Level FlightAware ADS-B
Sat 09:49:47 AM 50.2440 6.9050 102° East 303 349 7,400 -1,418 Descending FlightAware ADS-B
Sat 09:50:17 AM 50.2360 6.9640 102° East 298 343 7,000 -400 Descending FlightAware ADS-B
Sat 09:50:47 AM 50.2290 7.0160 102° East 298 343 7,000 -720 Level FlightAware ADS-B
Sat 09:51:47 AM 50.2100 7.1440 103° East 5,600 -847 Descending FlightAware ADS-B
Sat 09:53:37 AM 50.1430 7.3330 119° Southeast 268 308 4,600 -400 Descending FlightAware ADS-B
Sat 09:54:17 AM 50.1210 7.3860 123° Southeast 263 303 4,600  Level FlightAware ADS-B
Sat 09:56:00 AM 49.9487 7.2639 128° Southeast  Level Estimated
Sat 09:57:00 AM 49.9487 7.2639 128° Southeast  Level Estimated
Sat 09:58:00 AM 49.9487 7.2639 128° Southeast  Level Estimated
Sat 09:59:00 AM 49.9487 7.2639 128° Southeast  Level Estimated
Sat 10:00:00 AM 49.9487 7.2639 128° Southeast  Level Estimated
Sat 10:01:00 AM 49.9487 7.2639 128° Southeast  Level Estimated
Sat 10:02:00 AM 49.9487 7.2639 128° Southeast  Level Estimated
Sat 10:03:00 AM 49.9487 7.2639 128° Southeast  Level Estimated
Sat 10:04:00 AM 49.9487 7.2639 128° Southeast  Level Estimated
Sat 10:05:00 AM 49.9487 7.2639 128° Southeast  Level Estimated
Sat 10:06:00 AM 49.9487 7.2639 128° Southeast  Level Estimated
Sat 10:07:00 AM 49.9487 7.2639 128° Southeast  Level Estimated
Sat 10:08:00 AM 49.9487 7.2639 128° Southeast  Level Estimated
Sat 10:09:00 AM 49.9487 7.2639 128° Southeast  Level Estimated
Sat 10:10:00 AM 49.9487 7.2639 128° Southeast  Level Estimated

Login

Don't have an account? Register now (free) for customized features, flight alerts, and more!